Time;durP1;ratioP1;P1;durP2;ratioP2;P2;SDS_P1;SDS_P2;PMS_P1;PMS_P2;Temp;Humidity;BMP_temperature;BMP_pressure;BME280_temperature;BME280_humidity;BME280_pressure;Samples;Min_cycle;Max_cycle;Signal;HPM_P1;HPM_P2
2021/12/12 00:00:46;;;;;;;8.80;7.17;;;5.00;99.90;;;;;;5015530;28;20550;-54
2021/12/12 00:03:20;;;;;;;9.03;6.90;;;5.00;99.90;;;;;;5015396;28;20431;-54
2021/12/12 00:05:50;;;;;;;7.03;6.27;;;5.00;99.90;;;;;;5015530;28;20553;-54
2021/12/12 00:08:20;;;;;;;7.27;6.57;;;5.00;99.90;;;;;;5016020;28;20454;-55
2021/12/12 00:10:53;;;;;;;8.13;6.43;;;5.10;99.90;;;;;;5014956;28;21006;-54
2021/12/12 00:13:24;;;;;;;6.00;5.40;;;5.10;99.90;;;;;;5015501;28;20511;-54
2021/12/12 00:15:52;;;;;;;6.77;6.17;;;5.20;99.90;;;;;;5015723;28;20787;-54
2021/12/12 00:18:19;;;;;;;6.63;5.87;;;5.30;99.90;;;;;;5015547;28;20453;-54
2021/12/12 00:20:47;;;;;;;9.30;6.30;;;5.50;99.90;;;;;;5015606;28;20477;-54
2021/12/12 00:23:15;;;;;;;7.40;6.50;;;5.50;99.90;;;;;;5015580;28;20534;-54
2021/12/12 00:25:45;;;;;;;7.10;6.40;;;5.50;99.90;;;;;;5015349;28;20518;-54
2021/12/12 00:28:15;;;;;;;6.57;5.83;;;5.30;99.90;;;;;;5015160;28;20420;-55
2021/12/12 00:30:43;;;;;;;8.80;6.20;;;5.50;99.90;;;;;;5015119;28;20481;-54
2021/12/12 00:33:11;;;;;;;6.53;5.90;;;5.40;99.90;;;;;;5015284;28;20447;-54
2021/12/12 00:35:39;;;;;;;6.97;6.27;;;5.50;99.90;;;;;;5015518;28;20530;-54
2021/12/12 00:38:12;;;;;;;9.23;7.40;;;5.60;99.90;;;;;;5015085;28;20466;-54
2021/12/12 00:40:44;;;;;;;9.27;6.80;;;5.70;99.90;;;;;;5015270;28;20483;-55
2021/12/12 00:43:20;;;;;;;9.77;7.17;;;5.30;99.90;;;;;;5014837;28;20435;-55
2021/12/12 00:45:47;;;;;;;7.27;6.57;;;5.00;99.90;;;;;;5015136;28;20471;-55
2021/12/12 00:48:15;;;;;;;6.93;6.30;;;4.90;99.90;;;;;;5014852;28;20813;-54
2021/12/12 00:50:44;;;;;;;8.27;7.47;;;5.00;99.90;;;;;;5014446;28;20477;-54
2021/12/12 00:53:13;;;;;;;12.10;7.93;;;5.00;99.90;;;;;;5014636;28;20946;-54
2021/12/12 00:55:42;;;;;;;7.90;7.10;;;5.00;99.90;;;;;;5014444;28;20479;-54
2021/12/12 00:58:12;;;;;;;8.90;6.57;;;5.00;99.90;;;;;;5014551;28;20479;-54
2021/12/12 01:00:47;;;;;;;9.30;6.27;;;5.00;99.90;;;;;;5014951;28;20475;-55
2021/12/12 01:03:14;;;;;;;9.07;6.60;;;5.20;99.90;;;;;;5014510;28;20435;-54
2021/12/12 01:05:43;;;;;;;7.47;6.70;;;4.90;99.90;;;;;;5014413;28;20486;-54
2021/12/12 01:08:11;;;;;;;8.63;6.37;;;4.90;99.90;;;;;;5013303;28;20451;-54
2021/12/12 01:10:41;;;;;;;7.27;6.57;;;4.80;99.90;;;;;;5014017;28;20493;-55
2021/12/12 01:13:09;;;;;;;7.97;6.90;;;4.60;99.90;;;;;;5014352;28;20447;-54
2021/12/12 01:15:39;;;;;;;8.47;7.70;;;4.70;99.90;;;;;;5014071;28;20479;-54
2021/12/12 01:18:14;;;;;;;10.50;7.27;;;4.70;99.90;;;;;;5014402;28;20854;-55
2021/12/12 01:20:46;;;;;;;7.90;6.70;;;4.70;99.90;;;;;;5014116;28;20562;-54
2021/12/12 01:23:16;;;;;;;6.20;5.60;;;4.60;99.90;;;;;;5014018;28;20944;-54
2021/12/12 01:25:46;;;;;;;7.80;5.73;;;4.70;99.90;;;;;;5014117;28;20607;-55
2021/12/12 01:28:15;;;;;;;7.87;6.63;;;4.80;99.90;;;;;;5013964;28;20451;-55
2021/12/12 01:30:42;;;;;;;7.53;6.63;;;5.00;99.90;;;;;;5013829;28;20561;-55
2021/12/12 01:33:18;;;;;;;8.00;6.47;;;4.90;99.90;;;;;;5014018;28;20457;-54
2021/12/12 01:35:45;;;;;;;6.67;5.97;;;4.90;99.90;;;;;;5014093;28;20441;-55
2021/12/12 01:40:59;;;;;;;6.73;5.67;;;4.90;99.90;;;;;;5013668;28;20457;-54
2021/12/12 01:43:29;;;;;;;6.50;5.67;;;5.00;99.90;;;;;;5013979;28;20451;-55
2021/12/12 01:46:02;;;;;;;7.97;6.10;;;4.90;99.90;;;;;;5013458;28;20980;-55
2021/12/12 01:48:36;;;;;;;6.47;5.60;;;4.90;99.90;;;;;;5013545;28;20522;-54
2021/12/12 01:51:06;;;;;;;9.53;6.27;;;4.80;99.90;;;;;;5013888;28;21044;-54
2021/12/12 01:53:38;;;;;;;6.27;5.67;;;4.70;99.90;;;;;;5013995;28;20458;-54
2021/12/12 01:56:13;;;;;;;8.30;5.97;;;4.80;99.90;;;;;;5013765;28;20429;-54
2021/12/12 01:58:42;;;;;;;8.07;6.67;;;4.80;99.90;;;;;;5013813;28;20518;-55
2021/12/12 02:01:12;;;;;;;7.03;5.10;;;4.70;99.90;;;;;;5013768;28;20797;-54
2021/12/12 02:03:44;;;;;;;7.00;6.20;;;4.80;99.90;;;;;;5013478;28;20453;-54
2021/12/12 02:06:14;;;;;;;5.70;4.87;;;4.80;99.90;;;;;;5013317;28;20477;-54
2021/12/12 02:08:42;;;;;;;6.20;5.60;;;4.80;99.90;;;;;;5013434;28;20492;-54
2021/12/12 02:11:15;;;;;;;8.33;5.60;;;4.80;99.90;;;;;;5012949;28;20482;-54
2021/12/12 02:13:45;;;;;;;5.77;5.20;;;4.90;99.90;;;;;;5013309;28;20920;-54
2021/12/12 02:16:13;;;;;;;6.30;5.30;;;4.90;99.90;;;;;;5013374;28;20445;-55
2021/12/12 02:18:48;;;;;;;7.20;5.50;;;4.80;99.90;;;;;;5013368;28;20470;-54
2021/12/12 02:21:24;;;;;;;7.10;5.53;;;4.80;99.90;;;;;;5013138;28;20973;-54
2021/12/12 02:35:15;;;;;;;6.07;4.57;;;4.90;99.90;;;;;;5013062;28;20415;-55
2021/12/12 02:37:43;;;;;;;4.60;4.20;;;4.80;99.90;;;;;;5013310;28;20497;-54
2021/12/12 02:40:16;;;;;;;7.60;5.40;;;4.80;99.90;;;;;;5013281;28;20832;-54
2021/12/12 02:42:44;;;;;;;8.90;5.13;;;4.80;99.90;;;;;;5013068;28;20989;-54
2021/12/12 02:45:15;;;;;;;5.03;4.63;;;4.90;99.90;;;;;;5012703;28;20534;-55
2021/12/12 02:47:44;;;;;;;4.70;4.27;;;4.90;99.90;;;;;;5012832;28;20477;-54
2021/12/12 02:50:15;;;;;;;6.07;4.70;;;4.90;99.90;;;;;;5012989;28;20466;-54
2021/12/12 02:52:47;;;;;;;5.30;4.53;;;4.80;99.90;;;;;;5012725;28;20922;-55
2021/12/12 02:55:18;;;;;;;4.93;4.20;;;4.80;99.90;;;;;;5013126;28;20446;-55
2021/12/12 02:57:46;;;;;;;4.33;3.93;;;4.80;99.90;;;;;;5012793;28;20910;-54
2021/12/12 03:00:18;;;;;;;5.50;4.40;;;5.00;99.90;;;;;;5012823;28;20467;-54
2021/12/12 03:02:48;;;;;;;6.20;4.00;;;4.80;99.90;;;;;;5012940;28;20442;-54
2021/12/12 03:05:17;;;;;;;5.97;5.00;;;4.80;99.90;;;;;;5012855;28;20490;-54
2021/12/12 03:07:45;;;;;;;5.27;4.77;;;4.90;99.90;;;;;;5012824;28;20490;-54
2021/12/12 03:10:21;;;;;;;7.00;4.43;;;4.60;99.90;;;;;;5012165;28;20487;-54
2021/12/12 03:12:49;;;;;;;5.30;4.77;;;4.60;99.90;;;;;;5012492;28;20894;-54
2021/12/12 03:15:19;;;;;;;4.50;4.20;;;4.70;99.90;;;;;;5012957;28;20546;-55
2021/12/12 03:17:48;;;;;;;5.27;4.50;;;4.70;99.90;;;;;;5012694;28;20929;-54
2021/12/12 03:20:23;;;;;;;4.03;3.63;;;4.80;99.90;;;;;;5012711;28;20471;-55
2021/12/12 03:22:53;;;;;;;6.93;4.13;;;4.90;99.90;;;;;;5012530;28;20438;-55
2021/12/12 03:25:22;;;;;;;4.27;3.93;;;4.90;99.90;;;;;;5012532;28;20930;-54
2021/12/12 03:27:50;;;;;;;5.63;4.13;;;4.80;99.90;;;;;;5012667;28;20506;-55
2021/12/12 03:30:18;;;;;;;5.30;4.30;;;4.80;99.90;;;;;;5013381;28;20834;-54
2021/12/12 03:32:45;;;;;;;7.50;4.43;;;4.70;99.90;;;;;;5016297;28;20461;-54
2021/12/12 03:35:12;;;;;;;5.87;5.33;;;4.60;99.90;;;;;;5016311;28;20446;-54
2021/12/12 03:37:41;;;;;;;4.37;4.07;;;4.50;99.90;;;;;;5016006;28;20945;-54
2021/12/12 03:40:16;;;;;;;5.63;4.83;;;4.60;99.90;;;;;;5016480;28;20574;-54
2021/12/12 03:42:46;;;;;;;4.33;3.87;;;4.70;99.90;;;;;;5016458;28;20794;-55
2021/12/12 03:45:14;;;;;;;5.60;4.33;;;4.70;99.90;;;;;;5016257;28;20454;-54
2021/12/12 03:47:45;;;;;;;3.90;3.43;;;4.70;99.90;;;;;;5016101;28;20487;-54
2021/12/12 03:50:15;;;;;;;11.00;4.20;;;4.60;99.90;;;;;;5016224;28;20474;-54
2021/12/12 03:52:43;;;;;;;4.37;3.80;;;4.70;99.90;;;;;;5015779;28;20804;-54
2021/12/12 03:55:11;;;;;;;4.23;3.50;;;4.60;99.90;;;;;;5015750;28;20431;-54
2021/12/12 03:57:38;;;;;;;4.53;3.57;;;4.40;99.90;;;;;;5015996;28;20470;-55
2021/12/12 04:00:12;;;;;;;8.57;4.20;;;4.30;99.90;;;;;;5015575;28;20475;-55
2021/12/12 04:02:39;;;;;;;5.90;4.27;;;4.10;99.90;;;;;;5015594;28;20883;-54
2021/12/12 04:05:08;;;;;;;6.17;4.00;;;4.10;99.90;;;;;;5015479;28;20455;-54
2021/12/12 04:07:35;;;;;;;7.50;4.20;;;4.10;99.90;;;;;;5015809;28;20486;-54
2021/12/12 04:10:05;;;;;;;5.03;4.00;;;4.30;99.90;;;;;;5015318;28;20482;-54
2021/12/12 04:12:32;;;;;;;6.47;4.57;;;4.00;99.90;;;;;;5015269;28;20871;-54
2021/12/12 04:14:59;;;;;;;6.60;3.90;;;3.80;99.90;;;;;;5015736;28;20447;-54
2021/12/12 04:17:30;;;;;;;4.77;4.27;;;3.90;99.90;;;;;;5015360;28;20447;-54
2021/12/12 04:19:59;;;;;;;5.63;4.73;;;4.10;99.90;;;;;;5015159;28;21004;-54
2021/12/12 04:22:27;;;;;;;4.63;3.70;;;4.20;99.90;;;;;;5015408;28;20546;-54
2021/12/12 04:24:57;;;;;;;7.23;4.23;;;4.20;99.90;;;;;;5015314;28;20458;-54
2021/12/12 04:27:26;;;;;;;4.90;4.40;;;4.10;99.90;;;;;;5015035;28;20478;-54
2021/12/12 04:29:55;;;;;;;7.20;3.93;;;4.00;99.90;;;;;;5014850;28;20558;-54
2021/12/12 04:32:25;;;;;;;6.53;4.10;;;4.00;99.90;;;;;;5015210;28;20461;-54
2021/12/12 04:34:56;;;;;;;5.40;3.90;;;4.00;99.90;;;;;;5015313;28;20455;-54
2021/12/12 04:37:25;;;;;;;4.60;4.20;;;3.90;99.90;;;;;;5014982;28;20432;-54
2021/12/12 04:39:56;;;;;;;4.23;3.93;;;3.70;99.90;;;;;;5015127;28;20589;-54
2021/12/12 04:42:26;;;;;;;4.67;3.70;;;3.80;99.90;;;;;;5013973;28;20440;-54
2021/12/12 04:44:57;;;;;;;6.77;4.50;;;3.80;99.90;;;;;;5014749;28;20454;-54
2021/12/12 04:50:25;;;;;;;4.83;3.63;;;3.80;99.90;;;;;;5014728;28;20462;-54
2021/12/12 04:52:59;;;;;;;4.83;4.33;;;3.60;99.90;;;;;;5015036;28;20513;-54
2021/12/12 04:55:30;;;;;;;4.83;4.40;;;3.60;99.90;;;;;;5014557;28;20438;-55
2021/12/12 04:58:04;;;;;;;4.70;4.30;;;3.60;99.90;;;;;;5014640;28;20435;-55
2021/12/12 05:00:36;;;;;;;4.40;4.00;;;3.60;99.90;;;;;;5014579;28;20467;-54
2021/12/12 05:03:13;;;;;;;6.07;4.20;;;3.60;99.90;;;;;;5014650;28;20823;-54
2021/12/12 05:05:48;;;;;;;6.90;4.50;;;3.60;99.90;;;;;;5014227;28;20435;-54
2021/12/12 05:08:20;;;;;;;7.60;4.20;;;3.60;99.90;;;;;;5014213;28;21043;-55
2021/12/12 05:10:52;;;;;;;7.40;4.07;;;3.50;99.90;;;;;;5014374;28;20486;-55
2021/12/12 05:13:24;;;;;;;5.17;4.70;;;3.20;99.90;;;;;;5014066;28;20440;-55
2021/12/12 05:15:54;;;;;;;6.53;5.23;;;3.20;99.90;;;;;;5014159;28;20440;-55
2021/12/12 05:18:28;;;;;;;5.37;4.70;;;3.20;99.90;;;;;;5014057;28;20463;-54
2021/12/12 05:20:59;;;;;;;5.30;4.53;;;3.20;99.90;;;;;;5014033;28;20843;-55
2021/12/12 05:23:29;;;;;;;5.50;5.00;;;3.20;99.90;;;;;;5014218;28;20432;-54
2021/12/12 05:25:59;;;;;;;5.00;4.47;;;3.20;99.90;;;;;;5013921;28;20594;-54
2021/12/12 05:28:31;;;;;;;5.57;4.80;;;3.30;99.90;;;;;;5013742;28;21011;-54
2021/12/12 05:31:00;;;;;;;5.10;4.60;;;3.40;99.90;;;;;;5013922;28;20471;-54
2021/12/12 05:33:28;;;;;;;6.20;4.70;;;3.40;99.90;;;;;;5013985;28;20516;-54
2021/12/12 05:35:58;;;;;;;5.27;4.77;;;3.50;99.90;;;;;;5013953;28;20534;-55
2021/12/12 05:38:26;;;;;;;4.23;3.83;;;3.50;99.90;;;;;;5014237;28;20530;-54
2021/12/12 05:40:54;;;;;;;5.40;4.70;;;3.40;99.90;;;;;;5014214;28;20459;-54
2021/12/12 05:43:22;;;;;;;5.27;4.60;;;3.40;99.90;;;;;;5013934;28;20459;-54
2021/12/12 05:45:52;;;;;;;4.60;4.20;;;3.50;99.90;;;;;;5013511;28;20534;-54
2021/12/12 05:48:21;;;;;;;5.40;4.90;;;3.50;99.90;;;;;;5013909;28;20479;-55
2021/12/12 05:50:50;;;;;;;4.50;4.10;;;3.60;99.90;;;;;;5013645;28;20497;-54
2021/12/12 05:53:20;;;;;;;3.60;3.30;;;3.50;99.90;;;;;;5013163;28;20441;-54
2021/12/12 05:55:49;;;;;;;3.80;3.20;;;3.50;99.90;;;;;;5013727;28;20443;-54
2021/12/12 05:58:19;;;;;;;3.97;3.60;;;3.60;99.90;;;;;;5013465;28;20443;-54
2021/12/12 06:00:51;;;;;;;4.70;4.30;;;3.60;99.90;;;;;;5013300;28;20475;-54
2021/12/12 06:03:21;;;;;;;4.77;4.30;;;3.60;99.90;;;;;;5013546;28;20426;-54
2021/12/12 06:05:49;;;;;;;5.30;4.80;;;3.60;99.90;;;;;;5013859;28;20451;-54
2021/12/12 06:08:17;;;;;;;4.30;3.70;;;3.60;99.90;;;;;;5013208;28;20846;-54
2021/12/12 06:10:47;;;;;;;7.00;4.53;;;3.60;99.90;;;;;;5013118;28;20582;-55
2021/12/12 06:13:18;;;;;;;4.40;4.00;;;3.70;99.90;;;;;;5013643;28;20451;-54
2021/12/12 06:15:50;;;;;;;9.00;4.30;;;3.70;99.90;;;;;;5013668;28;20469;-54
2021/12/12 06:18:19;;;;;;;4.80;4.40;;;3.60;99.90;;;;;;5013076;28;20915;-54
2021/12/12 06:20:46;;;;;;;5.33;4.80;;;3.70;99.90;;;;;;5013070;28;20588;-54
2021/12/12 06:23:15;;;;;;;4.43;3.87;;;3.70;99.90;;;;;;5013609;28;20497;-54
2021/12/12 06:25:43;;;;;;;6.20;4.40;;;3.80;99.90;;;;;;5012996;28;20466;-55
2021/12/12 06:28:15;;;;;;;5.33;4.83;;;3.70;99.90;;;;;;5013274;28;20487;-54
2021/12/12 06:30:42;;;;;;;5.43;4.93;;;3.80;99.90;;;;;;5013553;28;20553;-56
2021/12/12 06:33:11;;;;;;;4.20;3.90;;;3.80;99.90;;;;;;5013465;28;20477;-54
2021/12/12 06:35:38;;;;;;;4.73;4.20;;;3.80;99.90;;;;;;5013248;28;20455;-54
2021/12/12 06:38:09;;;;;;;5.33;4.63;;;3.80;99.90;;;;;;5013484;28;20454;-54
2021/12/12 06:40:37;;;;;;;5.63;5.07;;;3.80;99.90;;;;;;5013569;28;20475;-54
2021/12/12 06:43:08;;;;;;;5.17;4.77;;;3.80;99.90;;;;;;5013205;28;20535;-54
2021/12/12 06:45:37;;;;;;;4.63;4.07;;;3.80;99.90;;;;;;5012973;28;20438;-54
2021/12/12 06:48:06;;;;;;;4.77;3.53;;;3.70;99.90;;;;;;5013285;28;20565;-54
2021/12/12 06:50:36;;;;;;;3.90;3.60;;;3.70;99.90;;;;;;5013264;28;20470;-54
2021/12/12 06:53:04;;;;;;;4.73;4.33;;;3.70;99.90;;;;;;5013481;28;20487;-54
2021/12/12 06:55:32;;;;;;;4.83;4.40;;;3.60;99.90;;;;;;5013038;28;20565;-54
2021/12/12 06:58:01;;;;;;;5.10;4.50;;;3.50;99.90;;;;;;5012888;28;20448;-54
2021/12/12 07:00:29;;;;;;;4.80;4.27;;;3.40;99.90;;;;;;5012944;28;20537;-54
2021/12/12 07:02:57;;;;;;;6.33;4.37;;;3.30;99.90;;;;;;5012771;28;20546;-54
2021/12/12 07:05:27;;;;;;;5.17;4.47;;;3.30;99.90;;;;;;5014222;28;20451;-56
2021/12/12 07:07:56;;;;;;;6.20;4.87;;;3.20;99.90;;;;;;5016594;28;20484;-55
2021/12/12 07:10:26;;;;;;;4.97;4.47;;;3.10;99.90;;;;;;5016610;28;20475;-54
2021/12/12 07:12:56;;;;;;;5.10;4.60;;;3.20;99.90;;;;;;5016511;28;20447;-55
2021/12/12 07:15:26;;;;;;;5.30;4.80;;;3.30;99.90;;;;;;5017084;28;20529;-55
2021/12/12 07:17:55;;;;;;;5.93;5.33;;;3.30;99.90;;;;;;5016538;28;20454;-53
2021/12/12 07:20:25;;;;;;;7.37;6.20;;;3.40;99.90;;;;;;5016825;28;20467;-55
2021/12/12 07:22:53;;;;;;;5.77;4.80;;;3.30;99.90;;;;;;5016848;28;20474;-55
2021/12/12 07:25:22;;;;;;;10.13;4.60;;;3.30;99.90;;;;;;5016630;28;20549;-55
2021/12/12 07:27:51;;;;;;;4.40;4.00;;;3.40;99.90;;;;;;5016474;28;20838;-54
2021/12/12 07:30:20;;;;;;;8.53;7.20;;;3.40;99.90;;;;;;5016533;28;20571;-55
2021/12/12 07:32:48;;;;;;;6.30;5.00;;;3.40;99.90;;;;;;5016245;28;20949;-55
2021/12/12 07:35:16;;;;;;;8.10;5.17;;;3.50;99.90;;;;;;5016412;28;20453;-55
2021/12/12 07:37:46;;;;;;;8.17;5.67;;;3.50;99.90;;;;;;5016367;28;20443;-55
2021/12/12 07:40:14;;;;;;;5.63;4.87;;;3.50;99.90;;;;;;5016482;28;20818;-55
2021/12/12 07:42:43;;;;;;;5.47;5.07;;;3.60;99.90;;;;;;5016205;28;20450;-55
2021/12/12 07:45:11;;;;;;;6.57;5.80;;;3.60;99.90;;;;;;5015820;28;20455;-55
2021/12/12 07:47:38;;;;;;;5.10;4.70;;;3.50;99.90;;;;;;5015748;28;20482;-55
2021/12/12 07:50:10;;;;;;;8.17;5.53;;;3.40;99.90;;;;;;5015643;28;20485;-55
2021/12/12 07:52:37;;;;;;;6.10;4.90;;;3.40;99.90;;;;;;5015767;28;20446;-56
2021/12/12 07:55:07;;;;;;;8.00;5.17;;;3.40;99.90;;;;;;5015928;28;20453;-55
2021/12/12 07:57:35;;;;;;;5.83;5.23;;;3.60;99.90;;;;;;5015813;28;20945;-55
2021/12/12 08:00:08;;;;;;;5.20;4.60;;;3.60;99.90;;;;;;5015697;28;20471;-55
2021/12/12 08:02:36;;;;;;;6.37;5.37;;;3.70;99.90;;;;;;5015650;28;20407;-56
2021/12/12 08:05:06;;;;;;;4.87;4.43;;;3.60;99.90;;;;;;5016065;28;20542;-55
2021/12/12 08:07:34;;;;;;;4.87;4.43;;;3.80;99.90;;;;;;5015484;28;21001;-55
2021/12/12 08:10:02;;;;;;;5.00;4.47;;;3.80;99.90;;;;;;5014464;28;20491;-55
2021/12/12 08:12:31;;;;;;;4.77;4.30;;;3.90;99.90;;;;;;5015707;28;20482;-55
2021/12/12 08:14:59;;;;;;;4.60;4.23;;;4.00;99.90;;;;;;5015697;28;20454;-57
2021/12/12 08:17:27;;;;;;;5.30;4.83;;;4.10;99.90;;;;;;5015111;28;20812;-55
2021/12/12 08:19:58;;;;;;;5.57;4.97;;;4.00;99.90;;;;;;5015339;28;20467;-55
2021/12/12 08:22:27;;;;;;;4.20;3.83;;;4.10;99.90;;;;;;5015907;28;20534;-55
2021/12/12 08:24:57;;;;;;;4.23;3.83;;;4.20;99.90;;;;;;5015045;28;20451;-55
2021/12/12 08:27:24;;;;;;;3.67;3.33;;;4.10;99.90;;;;;;5015017;28;20974;-55
2021/12/12 08:29:53;;;;;;;4.63;3.73;;;4.10;99.90;;;;;;5015259;28;20490;-56
2021/12/12 08:32:21;;;;;;;3.67;3.37;;;4.10;99.90;;;;;;5015107;28;20818;-55
2021/12/12 08:34:48;;;;;;;4.00;3.70;;;4.20;99.90;;;;;;5015214;28;20510;-55
2021/12/12 08:37:16;;;;;;;4.20;3.83;;;4.30;99.90;;;;;;5015176;28;20451;-55
2021/12/12 08:39:43;;;;;;;4.30;3.90;;;4.50;99.90;;;;;;5015208;28;20482;-55
2021/12/12 08:42:10;;;;;;;4.63;3.87;;;4.50;99.90;;;;;;5014701;28;20450;-55
2021/12/12 08:44:39;;;;;;;4.17;3.87;;;4.70;99.90;;;;;;5014674;28;20454;-55
2021/12/12 08:47:10;;;;;;;4.10;3.60;;;4.70;99.90;;;;;;5014926;28;20457;-55
2021/12/12 08:49:40;;;;;;;2.80;2.60;;;4.60;99.90;;;;;;5014630;28;20989;-55
2021/12/12 08:52:12;;;;;;;3.80;3.40;;;4.60;99.90;;;;;;5015175;28;20479;-55
2021/12/12 08:54:43;;;;;;;3.67;3.30;;;4.70;99.90;;;;;;5014907;28;20474;-55
2021/12/12 08:57:23;;;;;;;3.20;3.00;;;4.50;99.90;;;;;;5014894;28;20977;-56
2021/12/12 08:59:53;;;;;;;5.73;3.27;;;4.50;99.90;;;;;;5014985;28;20467;-55
2021/12/12 09:02:22;;;;;;;3.70;3.40;;;4.60;99.90;;;;;;5015098;28;20477;-55
2021/12/12 09:04:55;;;;;;;4.13;3.23;;;4.50;99.90;;;;;;5014331;28;20534;-55
2021/12/12 09:07:27;;;;;;;3.03;2.70;;;4.60;99.90;;;;;;5014857;28;20439;-55
2021/12/12 09:10:03;;;;;;;5.03;3.40;;;4.60;99.90;;;;;;5014254;28;20533;-55
2021/12/12 09:12:35;;;;;;;3.60;3.17;;;4.70;99.90;;;;;;5014605;28;20438;-55
2021/12/12 09:15:08;;;;;;;3.47;3.20;;;4.80;99.90;;;;;;5014570;28;20438;-55
2021/12/12 09:17:42;;;;;;;3.40;3.10;;;4.90;99.90;;;;;;5014059;28;20941;-54
2021/12/12 09:20:14;;;;;;;3.03;2.83;;;5.20;99.90;;;;;;5014201;28;20444;-55
2021/12/12 09:22:48;;;;;;;3.70;3.30;;;5.20;99.90;;;;;;5014375;28;20432;-55
2021/12/12 09:25:24;;;;;;;3.70;3.40;;;5.40;99.90;;;;;;5014125;28;20866;-56
2021/12/12 09:27:55;;;;;;;3.70;3.40;;;5.10;99.90;;;;;;5013486;28;20470;-54
2021/12/12 09:30:25;;;;;;;3.63;3.30;;;5.00;99.90;;;;;;5013990;28;20505;-54
2021/12/12 09:33:00;;;;;;;5.00;3.23;;;5.10;99.90;;;;;;5014225;28;20447;-54
2021/12/12 09:35:30;;;;;;;3.47;3.10;;;5.20;99.90;;;;;;5013778;28;20530;-55
2021/12/12 09:38:02;;;;;;;3.83;3.17;;;5.10;99.90;;;;;;5014057;28;20941;-56
2021/12/12 09:40:48;;;;;;;3.37;2.77;;;5.20;99.90;;;;;;5014166;28;20565;-55
2021/12/12 09:43:33;;;;;;;3.53;3.17;;;5.30;99.90;;;;;;5013795;28;20432;-54
2021/12/12 09:46:07;;;;;;;3.43;2.90;;;5.40;99.90;;;;;;5013558;28;20431;-57
2021/12/12 09:52:53;;;;;;;3.87;3.20;;;5.70;99.90;;;;;;5013711;28;20410;-55
2021/12/12 09:55:28;;;;;;;2.93;2.73;;;5.80;99.90;;;;;;5005232;28;20459;-54
2021/12/12 09:58:00;;;;;;;2.93;2.63;;;6.00;99.90;;;;;;5013960;28;20459;-54
2021/12/12 10:00:31;;;;;;;2.63;2.43;;;6.20;99.90;;;;;;5013829;28;20558;-54
2021/12/12 10:03:11;;;;;;;3.07;2.60;;;6.40;99.90;;;;;;5013421;28;20932;-55
2021/12/12 10:05:54;;;;;;;2.70;2.50;;;6.30;99.90;;;;;;5013374;28;20433;-54
2021/12/12 10:08:31;;;;;;;4.00;3.23;;;6.20;99.90;;;;;;5013241;28;20470;-55
2021/12/12 10:11:04;;;;;;;2.90;2.70;;;6.20;99.90;;;;;;5013431;28;20536;-56
2021/12/12 10:13:37;;;;;;;3.57;2.70;;;6.10;99.90;;;;;;5013100;28;20517;-55
2021/12/12 10:16:08;;;;;;;4.67;2.87;;;6.10;99.90;;;;;;5013367;28;20463;-54
2021/12/12 10:18:50;;;;;;;3.53;3.10;;;6.30;99.90;;;;;;5013195;28;20435;-54
2021/12/12 10:21:25;;;;;;;2.60;2.40;;;6.30;99.90;;;;;;5013434;28;20466;-54
2021/12/12 10:24:06;;;;;;;3.33;2.70;;;6.30;99.90;;;;;;5013152;28;20541;-54
2021/12/12 10:26:38;;;;;;;2.83;2.63;;;6.40;99.90;;;;;;5013242;28;20435;-54
2021/12/12 10:29:09;;;;;;;3.63;2.80;;;6.70;99.90;;;;;;5013036;28;20477;-54
2021/12/12 10:31:42;;;;;;;3.33;2.43;;;6.60;99.90;;;;;;5013331;28;20475;-54
2021/12/12 10:34:11;;;;;;;2.53;2.33;;;6.60;99.90;;;;;;5012914;28;20895;-55
2021/12/12 10:36:47;;;;;;;2.77;2.57;;;6.50;99.90;;;;;;5013166;28;20457;-54
2021/12/12 10:39:19;;;;;;;3.43;2.87;;;6.50;99.90;;;;;;5013131;28;20439;-56
2021/12/12 10:41:53;;;;;;;2.97;2.67;;;6.70;99.90;;;;;;5013223;28;20442;-54
2021/12/12 10:44:24;;;;;;;4.40;2.90;;;6.60;99.90;;;;;;5013228;28;20458;-54
2021/12/12 10:46:56;;;;;;;4.50;3.33;;;6.50;99.90;;;;;;5012774;28;20432;-54
2021/12/12 10:49:30;;;;;;;2.73;2.30;;;6.50;99.90;;;;;;5012604;28;20969;-55
2021/12/12 10:52:07;;;;;;;2.43;2.00;;;6.80;99.90;;;;;;5012766;28;20538;-54
2021/12/12 10:54:39;;;;;;;2.90;2.40;;;6.80;99.90;;;;;;5012865;28;20795;-54
2021/12/12 10:57:10;;;;;;;3.20;2.90;;;6.30;99.90;;;;;;5013174;28;20431;-56
2021/12/12 10:59:42;;;;;;;2.40;2.20;;;6.80;99.90;;;;;;5012775;28;20470;-56
2021/12/12 11:02:13;;;;;;;2.97;2.77;;;6.80;99.90;;;;;;5013153;28;20785;-57
2021/12/12 11:04:45;;;;;;;3.00;2.60;;;6.90;99.90;;;;;;5013369;28;20431;-56
2021/12/12 11:07:21;;;;;;;4.30;2.47;;;7.10;99.90;;;;;;5013223;28;20789;-55
2021/12/12 11:09:55;;;;;;;2.63;2.43;;;7.20;99.90;;;;;;5012780;28;20857;-56
2021/12/12 11:12:27;;;;;;;2.30;2.10;;;;;;;;;;5012640;28;20818;-56
2021/12/12 11:15:01;;;;;;;2.47;2.27;;;7.40;99.90;;;;;;5013044;28;20792;-56
2021/12/12 11:17:31;;;;;;;2.90;2.10;;;7.70;99.20;;;;;;5013608;28;20533;-56
2021/12/12 11:20:05;;;;;;;2.60;2.33;;;7.70;99.60;;;;;;5012549;28;20554;-55
2021/12/12 11:22:36;;;;;;;2.47;2.27;;;7.70;99.80;;;;;;5012974;28;20686;-56
2021/12/12 11:25:08;;;;;;;6.63;2.73;;;7.70;99.80;;;;;;5013050;28;20431;-57
2021/12/12 11:27:38;;;;;;;3.53;2.40;;;7.50;99.50;;;;;;5013051;28;20438;-57
2021/12/12 11:30:11;;;;;;;2.70;2.50;;;7.40;99.80;;;;;;5012775;28;20526;-56
2021/12/12 11:32:38;;;;;;;3.53;2.43;;;7.20;99.90;;;;;;5012996;28;20497;-55
2021/12/12 11:35:08;;;;;;;3.13;2.10;;;7.30;99.90;;;;;;5012776;28;20617;-56
2021/12/12 11:37:43;;;;;;;3.80;2.40;;;7.40;99.90;;;;;;5013001;28;20451;-57
2021/12/12 11:40:19;;;;;;;3.97;2.80;;;7.30;99.90;;;;;;5012798;28;20569;-56
2021/12/12 11:42:50;;;;;;;5.07;2.40;;;7.30;99.90;;;;;;5012780;28;20934;-56
2021/12/12 11:45:25;;;;;;;2.70;2.50;;;7.30;99.90;;;;;;5013018;28;20438;-56
2021/12/12 11:48:03;;;;;;;4.33;2.50;;;7.40;99.90;;;;;;5012500;28;20812;-57
2021/12/12 11:50:41;;;;;;;3.03;2.77;;;7.40;99.90;;;;;;5012677;28;20519;-56
2021/12/12 11:53:17;;;;;;;3.50;2.40;;;7.40;99.90;;;;;;5016418;28;20497;-56
2021/12/12 11:55:49;;;;;;;3.00;2.20;;;7.50;99.70;;;;;;5016201;28;20426;-57
2021/12/12 11:58:23;;;;;;;2.80;2.60;;;7.40;99.90;;;;;;5016240;28;20439;-56
2021/12/12 12:00:58;;;;;;;3.17;2.30;;;7.40;99.60;;;;;;5016066;28;20507;-56
2021/12/12 12:03:31;;;;;;;4.00;2.03;;;7.40;99.90;;;;;;5016204;28;20434;-56
2021/12/12 12:06:17;;;;;;;3.30;2.97;;;7.60;99.90;;;;;;5016150;28;20431;-56
2021/12/12 12:09:02;;;;;;;3.47;2.50;;;7.80;99.90;;;;;;5015907;28;20582;-56
2021/12/12 12:11:48;;;;;;;2.53;2.33;;;7.80;99.70;;;;;;5015429;28;20569;-56
2021/12/12 12:14:24;;;;;;;3.73;2.43;;;8.00;99.90;;;;;;5015808;28;20428;-55
2021/12/12 12:16:58;;;;;;;2.23;2.10;;;8.30;99.90;;;;;;5015870;28;20485;-55
2021/12/12 12:19:36;;;;;;;2.90;2.17;;;8.30;99.90;;;;;;5015679;28;20511;-57
2021/12/12 12:22:19;;;;;;;2.53;2.33;;;8.00;99.30;;;;;;5015377;28;20498;-55
2021/12/12 12:25:02;;;;;;;2.67;2.03;;;7.80;99.10;;;;;;5015815;28;20436;-56
2021/12/12 12:27:35;;;;;;;2.37;2.17;;;7.80;99.40;;;;;;5015635;28;20510;-56
2021/12/12 12:30:34;;;;;;;2.67;2.43;;;7.50;99.30;;;;;;5015169;28;21001;-56
2021/12/12 12:33:42;;;;;;;2.60;2.23;;;7.60;99.50;;;;;;5015546;28;20431;-56
2021/12/12 12:36:50;;;;;;;3.77;2.63;;;7.50;99.90;;;;;;4994306;28;20952;-55
2021/12/12 12:39:54;;;;;;;4.77;2.53;;;7.70;99.90;;;;;;5015067;28;20485;-55
2021/12/12 12:42:58;;;;;;;3.30;2.30;;;7.60;99.70;;;;;;5014945;28;20453;-55
2021/12/12 12:46:11;;;;;;;3.03;2.73;;;7.70;99.70;;;;;;5015387;28;20449;-56
2021/12/12 12:49:45;;;;;;;3.07;2.10;;;7.70;99.80;;;;;;5014791;28;20435;-55
2021/12/12 12:52:46;;;;;;;3.90;2.60;;;7.60;99.50;;;;;;5014744;28;20918;-55
2021/12/12 12:55:53;;;;;;;3.37;2.20;;;7.30;99.60;;;;;;5014580;28;20446;-55
2021/12/12 12:58:31;;;;;;;2.90;2.53;;;7.40;99.90;;;;;;5009744;28;20887;-55
2021/12/12 13:01:06;;;;;;;2.80;2.20;;;7.60;99.50;;;;;;5014528;28;20549;-55
2021/12/12 13:03:38;;;;;;;2.13;2.00;;;7.70;99.30;;;;;;5013576;28;20506;-55
2021/12/12 13:07:01;;;;;;;2.40;2.20;;;7.80;99.50;;;;;;5014392;28;20438;-55
2021/12/12 13:09:43;;;;;;;3.30;2.77;;;8.00;99.90;;;;;;5014375;28;20553;-55
2021/12/12 13:12:44;;;;;;;2.70;2.33;;;8.00;99.80;;;;;;4995174;28;20451;-56
2021/12/12 13:15:23;;;;;;;4.73;2.53;;;7.90;98.80;;;;;;4994646;28;20428;-55
2021/12/12 13:18:06;;;;;;;3.10;2.83;;;8.00;99.00;;;;;;4994588;28;20439;-55
2021/12/12 13:20:43;;;;;;;2.83;2.40;;;8.00;99.20;;;;;;4994623;28;20547;-55
2021/12/12 13:23:21;;;;;;;7.90;3.00;;;8.10;99.40;;;;;;4994865;28;20439;-55
2021/12/12 13:25:56;;;;;;;3.33;2.30;;;7.70;98.70;;;;;;4994859;28;20433;-56
2021/12/12 13:28:31;;;;;;;4.70;3.50;;;7.80;98.70;;;;;;4994854;28;20439;-56
2021/12/12 13:31:03;;;;;;;2.53;2.30;;;7.60;98.90;;;;;;4994367;28;20492;-55
2021/12/12 13:33:39;;;;;;;3.17;2.87;;;7.50;99.10;;;;;;4994332;28;20923;-55
2021/12/12 13:36:30;;;;;;;6.53;2.37;;;7.40;99.00;;;;;;4994261;28;20908;-56
2021/12/12 13:39:07;;;;;;;2.50;2.30;;;7.30;99.00;;;;;;4993979;28;20817;-56
2021/12/12 13:41:50;;;;;;;2.57;2.37;;;7.40;99.00;;;;;;4994006;28;20478;-55
2021/12/12 13:44:36;;;;;;;2.67;2.30;;;7.30;99.00;;;;;;4994455;28;20523;-55
2021/12/12 13:47:14;;;;;;;3.87;2.50;;;7.30;99.10;;;;;;4994280;28;20500;-55